sensor_id;sensor_type;location;lat;lon;timestamp;P1;durP1;ratioP1;P2;durP2;ratioP2
33066;SDS011;19428;49.024;8.366;2022-09-09T00:05:00;11.13;;;10.82;;
33066;SDS011;19428;49.024;8.366;2022-09-09T00:07:48;10.50;;;10.20;;
33066;SDS011;19428;49.024;8.366;2022-09-09T00:16:03;10.50;;;10.20;;
33066;SDS011;19428;49.024;8.366;2022-09-09T00:21:46;11.35;;;11.05;;
33066;SDS011;19428;49.024;8.366;2022-09-09T00:24:41;11.18;;;10.88;;
33066;SDS011;19428;49.024;8.366;2022-09-09T00:27:17;12.13;;;11.73;;
33066;SDS011;19428;49.024;8.366;2022-09-09T00:32:19;13.98;;;13.10;;
33066;SDS011;19428;49.024;8.366;2022-09-09T00:35:12;11.75;;;11.43;;
33066;SDS011;19428;49.024;8.366;2022-09-09T00:37:44;11.35;;;11.02;;
33066;SDS011;19428;49.024;8.366;2022-09-09T00:40:31;11.77;;;11.45;;
33066;SDS011;19428;49.024;8.366;2022-09-09T00:50:59;10.02;;;9.73;;
33066;SDS011;19428;49.024;8.366;2022-09-09T00:53:38;11.50;;;11.18;;
33066;SDS011;19428;49.024;8.366;2022-09-09T00:56:20;11.23;;;10.93;;
33066;SDS011;19428;49.024;8.366;2022-09-09T00:59:16;11.05;;;10.75;;
33066;SDS011;19428;49.024;8.366;2022-09-09T01:01:55;11.20;;;10.90;;
33066;SDS011;19428;49.024;8.366;2022-09-09T01:04:27;11.27;;;10.98;;
33066;SDS011;19428;49.024;8.366;2022-09-09T01:07:12;11.75;;;11.40;;
33066;SDS011;19428;49.024;8.366;2022-09-09T01:09:50;11.40;;;11.00;;
33066;SDS011;19428;49.024;8.366;2022-09-09T01:14:53;11.27;;;10.98;;
33066;SDS011;19428;49.024;8.366;2022-09-09T01:17:35;11.65;;;11.32;;
33066;SDS011;19428;49.024;8.366;2022-09-09T01:28:19;12.43;;;12.02;;
33066;SDS011;19428;49.024;8.366;2022-09-09T01:30:47;11.60;;;11.30;;
33066;SDS011;19428;49.024;8.366;2022-09-09T01:33:14;11.45;;;11.15;;
33066;SDS011;19428;49.024;8.366;2022-09-09T01:38:13;17.67;;;12.07;;
33066;SDS011;19428;49.024;8.366;2022-09-09T01:40:39;12.68;;;12.27;;
33066;SDS011;19428;49.024;8.366;2022-09-09T01:43:05;15.90;;;15.40;;
33066;SDS011;19428;49.024;8.366;2022-09-09T01:45:32;14.57;;;14.10;;
33066;SDS011;19428;49.024;8.366;2022-09-09T01:47:59;17.63;;;17.02;;
33066;SDS011;19428;49.024;8.366;2022-09-09T01:50:25;20.92;;;20.17;;
33066;SDS011;19428;49.024;8.366;2022-09-09T01:52:53;22.70;;;21.90;;
33066;SDS011;19428;49.024;8.366;2022-09-09T01:55:32;28.27;;;27.20;;
33066;SDS011;19428;49.024;8.366;2022-09-09T02:03:47;40.25;;;38.60;;
33066;SDS011;19428;49.024;8.366;2022-09-09T02:06:21;49.55;;;47.50;;
33066;SDS011;19428;49.024;8.366;2022-09-09T02:09:04;38.60;;;37.03;;
33066;SDS011;19428;49.024;8.366;2022-09-09T02:11:32;50.28;;;48.15;;
33066;SDS011;19428;49.024;8.366;2022-09-09T02:14:18;49.08;;;47.03;;
33066;SDS011;19428;49.024;8.366;2022-09-09T02:17:10;42.15;;;40.45;;
33066;SDS011;19428;49.024;8.366;2022-09-09T02:22:09;34.88;;;33.47;;
33066;SDS011;19428;49.024;8.366;2022-09-09T02:24:36;37.05;;;35.60;;
33066;SDS011;19428;49.024;8.366;2022-09-09T02:27:04;41.25;;;39.58;;
33066;SDS011;19428;49.024;8.366;2022-09-09T02:29:34;42.95;;;41.17;;
33066;SDS011;19428;49.024;8.366;2022-09-09T02:32:05;40.72;;;39.08;;
33066;SDS011;19428;49.024;8.366;2022-09-09T02:34:35;36.17;;;34.75;;
33066;SDS011;19428;49.024;8.366;2022-09-09T02:37:05;37.20;;;35.75;;
33066;SDS011;19428;49.024;8.366;2022-09-09T02:39:33;34.28;;;32.92;;
33066;SDS011;19428;49.024;8.366;2022-09-09T02:41:58;34.33;;;32.97;;
33066;SDS011;19428;49.024;8.366;2022-09-09T02:44:24;37.88;;;36.35;;
33066;SDS011;19428;49.024;8.366;2022-09-09T02:47:08;38.55;;;37.00;;
33066;SDS011;19428;49.024;8.366;2022-09-09T02:49:51;38.80;;;37.25;;
33066;SDS011;19428;49.024;8.366;2022-09-09T02:52:30;41.53;;;39.85;;
33066;SDS011;19428;49.024;8.366;2022-09-09T02:55:15;38.67;;;37.13;;
33066;SDS011;19428;49.024;8.366;2022-09-09T02:58:01;38.60;;;37.05;;
33066;SDS011;19428;49.024;8.366;2022-09-09T03:00:32;37.65;;;36.17;;
33066;SDS011;19428;49.024;8.366;2022-09-09T03:02:58;36.78;;;35.30;;
33066;SDS011;19428;49.024;8.366;2022-09-09T03:05:23;46.35;;;44.40;;
33066;SDS011;19428;49.024;8.366;2022-09-09T03:07:50;47.55;;;45.58;;
33066;SDS011;19428;49.024;8.366;2022-09-09T03:10:16;42.15;;;40.45;;
33066;SDS011;19428;49.024;8.366;2022-09-09T03:12:42;41.72;;;40.03;;
33066;SDS011;19428;49.024;8.366;2022-09-09T03:15:08;38.10;;;36.58;;
33066;SDS011;19428;49.024;8.366;2022-09-09T03:17:34;38.22;;;36.67;;
33066;SDS011;19428;49.024;8.366;2022-09-09T03:20:02;37.60;;;36.10;;
33066;SDS011;19428;49.024;8.366;2022-09-09T03:22:30;38.35;;;36.80;;
33066;SDS011;19428;49.024;8.366;2022-09-09T03:24:56;38.55;;;37.00;;
33066;SDS011;19428;49.024;8.366;2022-09-09T03:27:21;41.00;;;39.35;;
33066;SDS011;19428;49.024;8.366;2022-09-09T03:29:47;44.63;;;42.80;;
33066;SDS011;19428;49.024;8.366;2022-09-09T03:32:16;42.42;;;40.72;;
33066;SDS011;19428;49.024;8.366;2022-09-09T03:34:42;45.55;;;43.70;;
33066;SDS011;19428;49.024;8.366;2022-09-09T03:37:08;42.10;;;40.42;;
33066;SDS011;19428;49.024;8.366;2022-09-09T03:39:34;44.83;;;42.97;;
33066;SDS011;19428;49.024;8.366;2022-09-09T03:41:59;41.85;;;40.15;;
33066;SDS011;19428;49.024;8.366;2022-09-09T03:44:28;40.90;;;39.28;;
33066;SDS011;19428;49.024;8.366;2022-09-09T03:46:55;43.75;;;42.00;;
33066;SDS011;19428;49.024;8.366;2022-09-09T03:49:21;43.60;;;40.80;;
33066;SDS011;19428;49.024;8.366;2022-09-09T03:51:47;39.30;;;37.75;;
33066;SDS011;19428;49.024;8.366;2022-09-09T03:54:13;38.17;;;36.67;;
33066;SDS011;19428;49.024;8.366;2022-09-09T03:56:38;38.35;;;36.83;;
33066;SDS011;19428;49.024;8.366;2022-09-09T03:59:06;35.78;;;34.35;;
33066;SDS011;19428;49.024;8.366;2022-09-09T04:01:33;38.08;;;36.58;;
33066;SDS011;19428;49.024;8.366;2022-09-09T04:03:59;40.90;;;39.30;;
33066;SDS011;19428;49.024;8.366;2022-09-09T04:06:26;40.40;;;38.78;;
33066;SDS011;19428;49.024;8.366;2022-09-09T04:08:51;41.08;;;39.40;;
33066;SDS011;19428;49.024;8.366;2022-09-09T04:11:17;39.97;;;38.38;;
33066;SDS011;19428;49.024;8.366;2022-09-09T04:13:43;38.50;;;36.97;;
33066;SDS011;19428;49.024;8.366;2022-09-09T04:16:10;37.17;;;35.70;;
33066;SDS011;19428;49.024;8.366;2022-09-09T04:18:36;36.45;;;35.00;;
33066;SDS011;19428;49.024;8.366;2022-09-09T04:21:02;36.63;;;35.17;;
33066;SDS011;19428;49.024;8.366;2022-09-09T04:23:29;36.25;;;34.80;;
33066;SDS011;19428;49.024;8.366;2022-09-09T04:25:55;34.95;;;33.58;;
33066;SDS011;19428;49.024;8.366;2022-09-09T04:28:23;34.17;;;32.85;;
33066;SDS011;19428;49.024;8.366;2022-09-09T04:30:50;36.78;;;35.33;;
33066;SDS011;19428;49.024;8.366;2022-09-09T04:33:17;32.42;;;31.17;;
33066;SDS011;19428;49.024;8.366;2022-09-09T04:35:44;33.15;;;31.88;;
33066;SDS011;19428;49.024;8.366;2022-09-09T04:38:12;33.10;;;31.80;;
33066;SDS011;19428;49.024;8.366;2022-09-09T04:40:38;31.58;;;30.38;;
33066;SDS011;19428;49.024;8.366;2022-09-09T04:43:08;32.10;;;30.85;;
33066;SDS011;19428;49.024;8.366;2022-09-09T04:45:34;28.92;;;27.85;;
33066;SDS011;19428;49.024;8.366;2022-09-09T04:48:00;31.17;;;30.02;;
33066;SDS011;19428;49.024;8.366;2022-09-09T04:50:27;31.98;;;30.77;;
33066;SDS011;19428;49.024;8.366;2022-09-09T04:52:53;30.70;;;29.52;;
33066;SDS011;19428;49.024;8.366;2022-09-09T04:55:19;29.45;;;28.35;;
33066;SDS011;19428;49.024;8.366;2022-09-09T04:57:45;30.15;;;29.05;;
33066;SDS011;19428;49.024;8.366;2022-09-09T05:00:11;28.67;;;27.63;;
33066;SDS011;19428;49.024;8.366;2022-09-09T05:02:37;22.10;;;21.33;;
33066;SDS011;19428;49.024;8.366;2022-09-09T05:05:03;20.33;;;19.63;;
33066;SDS011;19428;49.024;8.366;2022-09-09T05:07:30;18.52;;;17.92;;
33066;SDS011;19428;49.024;8.366;2022-09-09T05:09:56;19.67;;;18.88;;
33066;SDS011;19428;49.024;8.366;2022-09-09T05:12:22;16.63;;;16.13;;
33066;SDS011;19428;49.024;8.366;2022-09-09T05:14:50;17.02;;;16.45;;
33066;SDS011;19428;49.024;8.366;2022-09-09T05:17:16;16.25;;;15.75;;
33066;SDS011;19428;49.024;8.366;2022-09-09T05:19:42;16.23;;;15.73;;
33066;SDS011;19428;49.024;8.366;2022-09-09T05:22:09;15.52;;;15.02;;
33066;SDS011;19428;49.024;8.366;2022-09-09T05:24:35;15.18;;;14.68;;
33066;SDS011;19428;49.024;8.366;2022-09-09T05:27:01;15.73;;;15.23;;
33066;SDS011;19428;49.024;8.366;2022-09-09T05:29:27;13.93;;;13.52;;
33066;SDS011;19428;49.024;8.366;2022-09-09T05:31:53;14.23;;;13.80;;
33066;SDS011;19428;49.024;8.366;2022-09-09T05:34:19;15.30;;;14.80;;
33066;SDS011;19428;49.024;8.366;2022-09-09T05:36:45;14.75;;;14.25;;
33066;SDS011;19428;49.024;8.366;2022-09-09T05:39:11;13.77;;;13.38;;
33066;SDS011;19428;49.024;8.366;2022-09-09T05:41:37;12.77;;;12.38;;
33066;SDS011;19428;49.024;8.366;2022-09-09T05:44:03;12.90;;;12.50;;
33066;SDS011;19428;49.024;8.366;2022-09-09T05:46:28;13.45;;;13.05;;
33066;SDS011;19428;49.024;8.366;2022-09-09T05:48:55;12.90;;;12.50;;
33066;SDS011;19428;49.024;8.366;2022-09-09T05:51:21;13.52;;;13.13;;
33066;SDS011;19428;49.024;8.366;2022-09-09T05:53:49;14.27;;;13.80;;
33066;SDS011;19428;49.024;8.366;2022-09-09T05:56:20;12.75;;;12.35;;
33066;SDS011;19428;49.024;8.366;2022-09-09T05:58:48;12.30;;;11.90;;
33066;SDS011;19428;49.024;8.366;2022-09-09T06:04:05;13.55;;;13.15;;
33066;SDS011;19428;49.024;8.366;2022-09-09T06:06:42;12.85;;;12.45;;
33066;SDS011;19428;49.024;8.366;2022-09-09T06:09:18;10.20;;;9.90;;
33066;SDS011;19428;49.024;8.366;2022-09-09T06:11:43;11.32;;;11.02;;
33066;SDS011;19428;49.024;8.366;2022-09-09T06:14:10;10.23;;;9.93;;
33066;SDS011;19428;49.024;8.366;2022-09-09T06:16:36;10.70;;;10.40;;
33066;SDS011;19428;49.024;8.366;2022-09-09T06:19:06;10.57;;;10.27;;
33066;SDS011;19428;49.024;8.366;2022-09-09T06:21:35;10.13;;;9.82;;
33066;SDS011;19428;49.024;8.366;2022-09-09T06:24:03;10.30;;;10.00;;
33066;SDS011;19428;49.024;8.366;2022-09-09T06:26:35;10.50;;;10.20;;
33066;SDS011;19428;49.024;8.366;2022-09-09T06:29:04;9.63;;;9.35;;
33066;SDS011;19428;49.024;8.366;2022-09-09T06:31:41;9.65;;;9.35;;
33066;SDS011;19428;49.024;8.366;2022-09-09T06:34:07;10.25;;;9.95;;
33066;SDS011;19428;49.024;8.366;2022-09-09T06:36:34;9.38;;;9.07;;
33066;SDS011;19428;49.024;8.366;2022-09-09T06:39:02;8.80;;;8.60;;
33066;SDS011;19428;49.024;8.366;2022-09-09T06:41:28;8.02;;;7.82;;
33066;SDS011;19428;49.024;8.366;2022-09-09T06:43:55;7.55;;;7.35;;
33066;SDS011;19428;49.024;8.366;2022-09-09T06:46:25;7.05;;;6.85;;
33066;SDS011;19428;49.024;8.366;2022-09-09T06:48:52;7.05;;;6.85;;
33066;SDS011;19428;49.024;8.366;2022-09-09T06:51:21;6.95;;;6.75;;
33066;SDS011;19428;49.024;8.366;2022-09-09T06:53:49;4.78;;;4.68;;
33066;SDS011;19428;49.024;8.366;2022-09-09T06:58:41;3.67;;;3.58;;
33066;SDS011;19428;49.024;8.366;2022-09-09T07:01:09;3.85;;;3.75;;
33066;SDS011;19428;49.024;8.366;2022-09-09T07:03:37;3.47;;;3.40;;
33066;SDS011;19428;49.024;8.366;2022-09-09T07:06:03;3.83;;;3.72;;
33066;SDS011;19428;49.024;8.366;2022-09-09T07:08:30;3.00;;;3.00;;
33066;SDS011;19428;49.024;8.366;2022-09-09T07:11:03;2.92;;;2.92;;
33066;SDS011;19428;49.024;8.366;2022-09-09T07:13:30;2.63;;;2.63;;
33066;SDS011;19428;49.024;8.366;2022-09-09T07:16:02;2.80;;;2.80;;
33066;SDS011;19428;49.024;8.366;2022-09-09T07:18:32;2.67;;;2.67;;
33066;SDS011;19428;49.024;8.366;2022-09-09T07:20:59;3.17;;;3.17;;
33066;SDS011;19428;49.024;8.366;2022-09-09T07:23:26;2.70;;;2.70;;
33066;SDS011;19428;49.024;8.366;2022-09-09T07:25:51;2.50;;;2.50;;
33066;SDS011;19428;49.024;8.366;2022-09-09T07:28:18;3.53;;;3.45;;
33066;SDS011;19428;49.024;8.366;2022-09-09T07:31:06;4.03;;;3.92;;
33066;SDS011;19428;49.024;8.366;2022-09-09T07:33:33;6.80;;;6.63;;
33066;SDS011;19428;49.024;8.366;2022-09-09T07:36:04;7.72;;;7.53;;
33066;SDS011;19428;49.024;8.366;2022-09-09T07:38:32;12.13;;;11.73;;
33066;SDS011;19428;49.024;8.366;2022-09-09T07:41:03;11.80;;;11.45;;
33066;SDS011;19428;49.024;8.366;2022-09-09T07:43:33;11.05;;;10.75;;
33066;SDS011;19428;49.024;8.366;2022-09-09T07:45:59;11.25;;;10.95;;
33066;SDS011;19428;49.024;8.366;2022-09-09T07:48:28;10.40;;;10.10;;
33066;SDS011;19428;49.024;8.366;2022-09-09T07:51:13;9.20;;;8.95;;
33066;SDS011;19428;49.024;8.366;2022-09-09T07:53:46;7.55;;;7.35;;
33066;SDS011;19428;49.024;8.366;2022-09-09T07:56:15;8.50;;;8.30;;
33066;SDS011;19428;49.024;8.366;2022-09-09T07:58:47;9.27;;;9.05;;
33066;SDS011;19428;49.024;8.366;2022-09-09T08:01:20;7.93;;;7.72;;
33066;SDS011;19428;49.024;8.366;2022-09-09T08:03:55;5.07;;;4.97;;
33066;SDS011;19428;49.024;8.366;2022-09-09T08:06:30;3.33;;;3.33;;
33066;SDS011;19428;49.024;8.366;2022-09-09T08:09:00;3.15;;;3.08;;
33066;SDS011;19428;49.024;8.366;2022-09-09T08:11:27;2.70;;;2.70;;
33066;SDS011;19428;49.024;8.366;2022-09-09T08:13:54;2.47;;;2.47;;
33066;SDS011;19428;49.024;8.366;2022-09-09T08:16:20;2.80;;;2.80;;
33066;SDS011;19428;49.024;8.366;2022-09-09T08:18:48;2.60;;;2.60;;
33066;SDS011;19428;49.024;8.366;2022-09-09T08:21:18;4.15;;;4.05;;
33066;SDS011;19428;49.024;8.366;2022-09-09T08:23:50;3.65;;;3.55;;
33066;SDS011;19428;49.024;8.366;2022-09-09T08:26:18;3.28;;;3.28;;
33066;SDS011;19428;49.024;8.366;2022-09-09T08:28:51;2.78;;;2.78;;
33066;SDS011;19428;49.024;8.366;2022-09-09T08:31:19;3.00;;;3.00;;
33066;SDS011;19428;49.024;8.366;2022-09-09T08:33:50;4.93;;;4.82;;
33066;SDS011;19428;49.024;8.366;2022-09-09T08:36:20;6.32;;;6.20;;
33066;SDS011;19428;49.024;8.366;2022-09-09T08:38:51;6.50;;;6.38;;
33066;SDS011;19428;49.024;8.366;2022-09-09T09:00:51;5.38;;;5.28;;
33066;SDS011;19428;49.024;8.366;2022-09-09T09:11:53;10.60;;;10.30;;
33066;SDS011;19428;49.024;8.366;2022-09-09T09:14:26;11.27;;;10.98;;
33066;SDS011;19428;49.024;8.366;2022-09-09T09:17:00;12.63;;;12.23;;
33066;SDS011;19428;49.024;8.366;2022-09-09T09:19:28;11.40;;;11.10;;
33066;SDS011;19428;49.024;8.366;2022-09-09T09:22:05;8.73;;;8.52;;
33066;SDS011;19428;49.024;8.366;2022-09-09T09:27:34;7.60;;;7.30;;
33066;SDS011;19428;49.024;8.366;2022-09-09T09:30:15;7.32;;;7.13;;
33066;SDS011;19428;49.024;8.366;2022-09-09T09:32:44;2.97;;;2.97;;
33066;SDS011;19428;49.024;8.366;2022-09-09T09:35:28;2.40;;;2.40;;
33066;SDS011;19428;49.024;8.366;2022-09-09T09:37:53;2.42;;;2.42;;
33066;SDS011;19428;49.024;8.366;2022-09-09T09:40:20;2.05;;;2.05;;
33066;SDS011;19428;49.024;8.366;2022-09-09T09:42:59;2.42;;;2.42;;
33066;SDS011;19428;49.024;8.366;2022-09-09T09:45:28;2.80;;;2.80;;
33066;SDS011;19428;49.024;8.366;2022-09-09T09:48:08;2.40;;;2.40;;
33066;SDS011;19428;49.024;8.366;2022-09-09T09:50:45;2.95;;;2.95;;
33066;SDS011;19428;49.024;8.366;2022-09-09T09:53:33;2.58;;;2.58;;
33066;SDS011;19428;49.024;8.366;2022-09-09T09:58:37;3.10;;;3.10;;
33066;SDS011;19428;49.024;8.366;2022-09-09T10:01:25;6.28;;;6.18;;
33066;SDS011;19428;49.024;8.366;2022-09-09T10:04:20;8.63;;;8.43;;
33066;SDS011;19428;49.024;8.366;2022-09-09T10:06:46;3.90;;;3.80;;
33066;SDS011;19428;49.024;8.366;2022-09-09T10:09:24;3.70;;;3.60;;
33066;SDS011;19428;49.024;8.366;2022-09-09T10:12:04;3.53;;;3.42;;
33066;SDS011;19428;49.024;8.366;2022-09-09T10:17:29;4.10;;;3.92;;
33066;SDS011;19428;49.024;8.366;2022-09-09T10:22:35;4.40;;;4.30;;
33066;SDS011;19428;49.024;8.366;2022-09-09T10:27:54;4.22;;;4.13;;
33066;SDS011;19428;49.024;8.366;2022-09-09T10:30:34;5.25;;;5.15;;
33066;SDS011;19428;49.024;8.366;2022-09-09T10:33:49;4.90;;;4.80;;
33066;SDS011;19428;49.024;8.366;2022-09-09T10:36:13;4.63;;;4.53;;
33066;SDS011;19428;49.024;8.366;2022-09-09T10:38:45;5.10;;;5.00;;
33066;SDS011;19428;49.024;8.366;2022-09-09T10:41:15;8.98;;;5.35;;
33066;SDS011;19428;49.024;8.366;2022-09-09T10:43:48;4.22;;;4.13;;
33066;SDS011;19428;49.024;8.366;2022-09-09T10:46:32;3.55;;;3.47;;
33066;SDS011;19428;49.024;8.366;2022-09-09T10:52:30;3.13;;;3.13;;
33066;SDS011;19428;49.024;8.366;2022-09-09T10:57:39;3.20;;;3.20;;
33066;SDS011;19428;49.024;8.366;2022-09-09T11:02:42;3.28;;;3.28;;
33066;SDS011;19428;49.024;8.366;2022-09-09T11:05:21;3.30;;;3.30;;
33066;SDS011;19428;49.024;8.366;2022-09-09T11:08:01;3.83;;;3.73;;
33066;SDS011;19428;49.024;8.366;2022-09-09T11:11:20;4.00;;;3.90;;
33066;SDS011;19428;49.024;8.366;2022-09-09T11:16:25;3.70;;;3.60;;
33066;SDS011;19428;49.024;8.366;2022-09-09T11:18:55;3.67;;;3.58;;
33066;SDS011;19428;49.024;8.366;2022-09-09T11:21:29;3.92;;;3.83;;
33066;SDS011;19428;49.024;8.366;2022-09-09T11:24:05;4.10;;;4.00;;
33066;SDS011;19428;49.024;8.366;2022-09-09T11:26:37;3.97;;;3.88;;
33066;SDS011;19428;49.024;8.366;2022-09-09T11:29:36;3.30;;;3.30;;
33066;SDS011;19428;49.024;8.366;2022-09-09T11:35:19;3.88;;;3.78;;
33066;SDS011;19428;49.024;8.366;2022-09-09T11:40:53;5.03;;;4.93;;
33066;SDS011;19428;49.024;8.366;2022-09-09T11:43:31;3.83;;;3.72;;
33066;SDS011;19428;49.024;8.366;2022-09-09T11:46:09;4.65;;;4.55;;
33066;SDS011;19428;49.024;8.366;2022-09-09T11:48:39;4.80;;;4.70;;
33066;SDS011;19428;49.024;8.366;2022-09-09T11:51:11;3.70;;;3.60;;
33066;SDS011;19428;49.024;8.366;2022-09-09T11:56:30;3.55;;;3.47;;
33066;SDS011;19428;49.024;8.366;2022-09-09T11:59:04;3.38;;;3.38;;
33066;SDS011;19428;49.024;8.366;2022-09-09T12:01:42;4.15;;;4.05;;
33066;SDS011;19428;49.024;8.366;2022-09-09T12:07:58;4.32;;;4.22;;
33066;SDS011;19428;49.024;8.366;2022-09-09T12:10:28;4.70;;;4.60;;
33066;SDS011;19428;49.024;8.366;2022-09-09T12:13:07;4.72;;;4.63;;
33066;SDS011;19428;49.024;8.366;2022-09-09T12:15:50;5.22;;;5.13;;
33066;SDS011;19428;49.024;8.366;2022-09-09T12:23:52;5.20;;;5.10;;
33066;SDS011;19428;49.024;8.366;2022-09-09T12:26:41;5.53;;;5.43;;
33066;SDS011;19428;49.024;8.366;2022-09-09T12:32:07;5.55;;;5.45;;
33066;SDS011;19428;49.024;8.366;2022-09-09T12:39:57;3.35;;;3.35;;
33066;SDS011;19428;49.024;8.366;2022-09-09T12:42:25;2.97;;;2.97;;
33066;SDS011;19428;49.024;8.366;2022-09-09T12:47:23;4.82;;;4.72;;
33066;SDS011;19428;49.024;8.366;2022-09-09T12:49:55;7.43;;;7.22;;
33066;SDS011;19428;49.024;8.366;2022-09-09T12:52:35;9.68;;;9.38;;
33066;SDS011;19428;49.024;8.366;2022-09-09T12:55:03;6.88;;;6.70;;
33066;SDS011;19428;49.024;8.366;2022-09-09T12:57:33;4.57;;;4.47;;
33066;SDS011;19428;49.024;8.366;2022-09-09T13:00:05;5.90;;;5.80;;
33066;SDS011;19428;49.024;8.366;2022-09-09T13:02:44;4.93;;;4.82;;
33066;SDS011;19428;49.024;8.366;2022-09-09T13:05:25;4.70;;;4.60;;
33066;SDS011;19428;49.024;8.366;2022-09-09T13:08:00;7.78;;;7.57;;
33066;SDS011;19428;49.024;8.366;2022-09-09T13:10:31;8.48;;;8.27;;
33066;SDS011;19428;49.024;8.366;2022-09-09T13:13:03;9.15;;;8.93;;
33066;SDS011;19428;49.024;8.366;2022-09-09T13:15:37;8.32;;;8.13;;
33066;SDS011;19428;49.024;8.366;2022-09-09T13:18:06;8.30;;;8.10;;
33066;SDS011;19428;49.024;8.366;2022-09-09T13:20:37;6.22;;;6.13;;
33066;SDS011;19428;49.024;8.366;2022-09-09T13:23:03;4.65;;;4.55;;
33066;SDS011;19428;49.024;8.366;2022-09-09T13:25:28;4.38;;;4.28;;
33066;SDS011;19428;49.024;8.366;2022-09-09T13:27:56;4.38;;;4.28;;
33066;SDS011;19428;49.024;8.366;2022-09-09T13:33:06;4.57;;;4.47;;
33066;SDS011;19428;49.024;8.366;2022-09-09T13:41:18;3.70;;;3.60;;
33066;SDS011;19428;49.024;8.366;2022-09-09T13:43:58;3.92;;;3.83;;
33066;SDS011;19428;49.024;8.366;2022-09-09T13:51:37;3.50;;;3.40;;
33066;SDS011;19428;49.024;8.366;2022-09-09T13:54:08;2.92;;;2.92;;
33066;SDS011;19428;49.024;8.366;2022-09-09T13:56:35;2.80;;;2.80;;
33066;SDS011;19428;49.024;8.366;2022-09-09T13:59:02;3.10;;;3.10;;
33066;SDS011;19428;49.024;8.366;2022-09-09T14:01:29;4.60;;;4.40;;
33066;SDS011;19428;49.024;8.366;2022-09-09T14:03:56;3.13;;;3.13;;
33066;SDS011;19428;49.024;8.366;2022-09-09T14:06:22;2.72;;;2.72;;
33066;SDS011;19428;49.024;8.366;2022-09-09T14:08:51;3.15;;;3.15;;
33066;SDS011;19428;49.024;8.366;2022-09-09T14:11:18;7.07;;;6.88;;
33066;SDS011;19428;49.024;8.366;2022-09-09T14:13:46;44.20;;;42.50;;
33066;SDS011;19428;49.024;8.366;2022-09-09T14:16:15;10.32;;;10.02;;
33066;SDS011;19428;49.024;8.366;2022-09-09T14:18:42;11.00;;;10.70;;
33066;SDS011;19428;49.024;8.366;2022-09-09T14:21:09;12.90;;;12.50;;
33066;SDS011;19428;49.024;8.366;2022-09-09T14:23:36;9.77;;;9.48;;
33066;SDS011;19428;49.024;8.366;2022-09-09T14:26:06;7.97;;;7.78;;
33066;SDS011;19428;49.024;8.366;2022-09-09T14:28:33;6.38;;;6.25;;
33066;SDS011;19428;49.024;8.366;2022-09-09T14:31:02;9.48;;;9.23;;
33066;SDS011;19428;49.024;8.366;2022-09-09T14:33:54;7.82;;;7.60;;
33066;SDS011;19428;49.024;8.366;2022-09-09T14:36:24;10.45;;;10.15;;
33066;SDS011;19428;49.024;8.366;2022-09-09T14:38:55;10.85;;;10.55;;
33066;SDS011;19428;49.024;8.366;2022-09-09T14:41:22;12.43;;;12.05;;
33066;SDS011;19428;49.024;8.366;2022-09-09T14:43:50;12.43;;;12.02;;
33066;SDS011;19428;49.024;8.366;2022-09-09T14:46:17;13.98;;;13.52;;
33066;SDS011;19428;49.024;8.366;2022-09-09T14:48:45;19.65;;;18.98;;
33066;SDS011;19428;49.024;8.366;2022-09-09T14:51:17;20.60;;;19.90;;
33066;SDS011;19428;49.024;8.366;2022-09-09T14:53:47;15.95;;;15.45;;
33066;SDS011;19428;49.024;8.366;2022-09-09T14:56:16;16.70;;;16.15;;
33066;SDS011;19428;49.024;8.366;2022-09-09T14:58:43;14.35;;;13.90;;
33066;SDS011;19428;49.024;8.366;2022-09-09T15:01:10;16.33;;;15.80;;
33066;SDS011;19428;49.024;8.366;2022-09-09T15:03:38;21.33;;;20.58;;
33066;SDS011;19428;49.024;8.366;2022-09-09T15:06:12;25.63;;;24.70;;
33066;SDS011;19428;49.024;8.366;2022-09-09T15:08:39;27.40;;;26.10;;
33066;SDS011;19428;49.024;8.366;2022-09-09T15:11:07;22.60;;;21.80;;
33066;SDS011;19428;49.024;8.366;2022-09-09T15:13:33;22.20;;;21.40;;
33066;SDS011;19428;49.024;8.366;2022-09-09T15:16:09;20.13;;;19.42;;
33066;SDS011;19428;49.024;8.366;2022-09-09T15:18:37;21.70;;;20.92;;
33066;SDS011;19428;49.024;8.366;2022-09-09T15:21:07;18.80;;;18.20;;
33066;SDS011;19428;49.024;8.366;2022-09-09T15:23:34;13.40;;;13.00;;
33066;SDS011;19428;49.024;8.366;2022-09-09T15:26:00;11.07;;;10.77;;
33066;SDS011;19428;49.024;8.366;2022-09-09T15:28:26;8.38;;;8.18;;
33066;SDS011;19428;49.024;8.366;2022-09-09T15:30:52;4.22;;;4.13;;
33066;SDS011;19428;49.024;8.366;2022-09-09T15:33:19;4.43;;;4.32;;
33066;SDS011;19428;49.024;8.366;2022-09-09T15:35:46;4.47;;;4.38;;
33066;SDS011;19428;49.024;8.366;2022-09-09T15:38:12;4.00;;;3.90;;
33066;SDS011;19428;49.024;8.366;2022-09-09T15:40:38;3.63;;;3.53;;
33066;SDS011;19428;49.024;8.366;2022-09-09T15:43:05;3.30;;;3.30;;
33066;SDS011;19428;49.024;8.366;2022-09-09T15:45:32;4.57;;;4.47;;
33066;SDS011;19428;49.024;8.366;2022-09-09T15:48:00;3.78;;;3.67;;
33066;SDS011;19428;49.024;8.366;2022-09-09T15:50:27;3.08;;;3.08;;
33066;SDS011;19428;49.024;8.366;2022-09-09T15:52:55;3.17;;;3.17;;
33066;SDS011;19428;49.024;8.366;2022-09-09T15:55:21;3.75;;;3.65;;
33066;SDS011;19428;49.024;8.366;2022-09-09T15:57:50;4.00;;;3.90;;
33066;SDS011;19428;49.024;8.366;2022-09-09T16:00:18;7.50;;;7.30;;
33066;SDS011;19428;49.024;8.366;2022-09-09T16:02:47;5.40;;;5.30;;
33066;SDS011;19428;49.024;8.366;2022-09-09T16:05:13;4.85;;;4.75;;
33066;SDS011;19428;49.024;8.366;2022-09-09T16:07:39;6.35;;;6.15;;
33066;SDS011;19428;49.024;8.366;2022-09-09T16:10:07;5.22;;;5.13;;
33066;SDS011;19428;49.024;8.366;2022-09-09T16:12:34;5.53;;;5.43;;
33066;SDS011;19428;49.024;8.366;2022-09-09T16:15:00;5.22;;;5.13;;
33066;SDS011;19428;49.024;8.366;2022-09-09T16:17:27;6.90;;;6.75;;
33066;SDS011;19428;49.024;8.366;2022-09-09T16:19:56;6.35;;;6.25;;
33066;SDS011;19428;49.024;8.366;2022-09-09T16:22:22;8.95;;;8.75;;
33066;SDS011;19428;49.024;8.366;2022-09-09T16:24:49;7.75;;;7.55;;
33066;SDS011;19428;49.024;8.366;2022-09-09T16:27:14;8.10;;;7.90;;
33066;SDS011;19428;49.024;8.366;2022-09-09T16:29:40;9.50;;;9.23;;
33066;SDS011;19428;49.024;8.366;2022-09-09T16:32:06;10.43;;;10.13;;
33066;SDS011;19428;49.024;8.366;2022-09-09T16:34:33;11.32;;;11.02;;
33066;SDS011;19428;49.024;8.366;2022-09-09T16:37:23;12.98;;;12.57;;
33066;SDS011;19428;49.024;8.366;2022-09-09T16:39:49;13.77;;;13.38;;
33066;SDS011;19428;49.024;8.366;2022-09-09T16:42:15;15.98;;;15.45;;
33066;SDS011;19428;49.024;8.366;2022-09-09T16:44:41;20.77;;;20.02;;
33066;SDS011;19428;49.024;8.366;2022-09-09T16:47:07;28.65;;;27.55;;
33066;SDS011;19428;49.024;8.366;2022-09-09T16:49:33;36.30;;;34.88;;
33066;SDS011;19428;49.024;8.366;2022-09-09T16:51:59;37.88;;;36.33;;
33066;SDS011;19428;49.024;8.366;2022-09-09T16:54:24;44.45;;;42.60;;
33066;SDS011;19428;49.024;8.366;2022-09-09T16:56:52;39.80;;;38.15;;
33066;SDS011;19428;49.024;8.366;2022-09-09T16:59:19;37.75;;;36.22;;
33066;SDS011;19428;49.024;8.366;2022-09-09T17:01:47;44.72;;;42.90;;
33066;SDS011;19428;49.024;8.366;2022-09-09T17:04:18;41.78;;;40.10;;
33066;SDS011;19428;49.024;8.366;2022-09-09T17:06:49;37.23;;;35.77;;
33066;SDS011;19428;49.024;8.366;2022-09-09T17:09:17;35.35;;;33.95;;
33066;SDS011;19428;49.024;8.366;2022-09-09T17:11:46;33.97;;;32.65;;
33066;SDS011;19428;49.024;8.366;2022-09-09T17:14:14;28.27;;;27.25;;
33066;SDS011;19428;49.024;8.366;2022-09-09T17:16:41;16.25;;;15.75;;
33066;SDS011;19428;49.024;8.366;2022-09-09T17:19:07;11.82;;;11.48;;